Time;durP1;ratioP1;P1;durP2;ratioP2;P2;SDS_P1;SDS_P2;PMS_P1;PMS_P2;Temp;Humidity;BMP_temperature;BMP_pressure;BME280_temperature;BME280_humidity;BME280_pressure;Samples;Min_cycle;Max_cycle;Signal;HPM_P1;HPM_P2
2022/03/13 00:01:41;;;;;;;;;;;;;;;0.87;31.38;99932.47;5026045;28;20050;-66
2022/03/13 00:04:14;;;;;;;9.93;5.95;;;;;;;0.86;30.67;99934.22;5024730;28;19917;-66
2022/03/13 00:06:50;;;;;;;10.45;7.18;;;;;;;0.87;31.07;99940.31;5025527;28;20088;-66
2022/03/13 00:09:22;;;;;;;8.40;6.75;;;;;;;0.85;31.03;99927.25;5025224;28;20042;-67
2022/03/13 00:11:54;;;;;;;9.05;6.43;;;;;;;0.86;30.92;99935.97;5025217;28;20041;-66
2022/03/13 00:14:28;;;;;;;8.38;7.07;;;;;;;0.66;30.71;99904.78;5025332;28;20092;-66
2022/03/13 00:17:00;;;;;;;12.45;7.13;;;;;;;0.87;30.77;99937.69;5026071;28;20084;-66
2022/03/13 00:19:33;;;;;;;11.10;7.70;;;;;;;0.77;31.35;99931.66;5029042;28;20182;-66
2022/03/13 00:22:06;;;;;;;8.35;7.03;;;;;;;0.64;31.69;99935.22;5028221;28;20042;-66
2022/03/13 00:24:39;;;;;;;13.07;7.40;;;;;;;-0.13;31.63;99821.78;5028710;28;20050;-66
2022/03/13 00:27:11;;;;;;;7.55;6.07;;;;;;;0.75;31.20;99930.81;5028886;28;20045;-66
2022/03/13 00:29:43;;;;;;;9.88;7.15;;;;;;;0.78;31.27;99920.34;5028883;28;20037;-66
2022/03/13 00:32:17;;;;;;;10.10;7.30;;;;;;;0.01;31.41;99809.56;5028613;28;20060;-66
2022/03/13 00:34:49;;;;;;;10.98;7.88;;;;;;;0.77;31.02;99912.53;5028759;28;20092;-66
2022/03/13 00:37:22;;;;;;;10.57;7.68;;;;;;;0.75;31.46;99903.84;5028722;28;20092;-66
2022/03/13 00:39:56;;;;;;;10.38;5.95;;;;;;;0.74;31.13;99907.34;5028569;28;20037;-66
2022/03/13 00:42:29;;;;;;;11.85;7.97;;;;;;;0.64;31.57;99897.84;5028661;28;20298;-66
2022/03/13 00:45:01;;;;;;;15.32;6.72;;;;;;;0.57;31.56;99890.06;5028311;28;20103;-66
2022/03/13 00:47:34;;;;;;;10.48;7.50;;;;;;;0.59;31.34;99898.75;5028257;28;20046;-66
2022/03/13 00:50:07;;;;;;;9.85;6.40;;;;;;;0.60;31.40;99897.84;5028248;28;20293;-66
2022/03/13 00:52:41;;;;;;;9.95;6.43;;;;;;;0.58;31.42;99896.13;5028187;28;20042;-66
2022/03/13 00:55:13;;;;;;;10.95;7.82;;;;;;;0.59;31.48;99896.13;5027816;28;20100;-66
2022/03/13 00:57:45;;;;;;;9.23;6.25;;;;;;;0.53;31.60;99892.69;5028299;28;20065;-67
2022/03/13 01:00:18;;;;;;;9.63;7.22;;;;;;;0.51;31.45;99889.22;5028059;28;20141;-66
2022/03/13 01:02:50;;;;;;;9.88;6.80;;;;;;;0.51;31.30;99882.28;5028227;28;20104;-67
2022/03/13 01:05:25;;;;;;;10.43;7.25;;;;;;;0.49;31.74;99885.75;5028139;28;20049;-67
2022/03/13 01:08:00;;;;;;;9.60;6.40;;;;;;;0.52;31.17;99881.41;5027397;28;20048;-67
2022/03/13 01:10:32;;;;;;;12.48;8.40;;;;;;;0.52;31.36;99883.13;5027876;28;20045;-67
2022/03/13 01:13:04;;;;;;;10.50;7.65;;;;;;;0.46;31.54;99875.34;5027960;28;20049;-67
2022/03/13 01:15:38;;;;;;;11.70;7.35;;;;;;;0.43;31.58;99877.97;5027666;28;20305;-68
2022/03/13 01:18:10;;;;;;;8.75;6.32;;;;;;;0.45;31.26;99871.00;5027688;28;20092;-68
2022/03/13 01:20:46;;;;;;;10.43;7.05;;;;;;;0.51;31.53;99874.44;5027890;28;20249;-67
2022/03/13 01:23:20;;;;;;;10.85;6.57;;;;;;;0.39;31.51;99874.53;5026829;28;20046;-67
2022/03/13 01:26:34;;;;;;;12.70;8.85;;;;;;;0.39;31.82;99871.03;5027779;28;20237;-67
2022/03/13 01:29:09;;;;;;;10.88;7.32;;;;;;;0.28;32.02;99874.59;5026956;28;20149;-68
2022/03/13 01:31:45;;;;;;;12.75;8.40;;;;;;;0.29;31.68;99873.72;5027447;28;20046;-66
2022/03/13 01:34:38;;;;;;;8.77;7.25;;;;;;;0.30;31.76;99866.75;5027681;28;20045;-66
2022/03/13 01:37:19;;;;;;;10.75;7.65;;;;;;;-0.79;31.86;99706.63;5027363;28;20248;-66
2022/03/13 01:39:52;;;;;;;11.25;7.30;;;;;;;0.34;31.57;99859.78;5027297;28;20042;-67
2022/03/13 01:42:24;;;;;;;12.32;7.95;;;;;;;0.36;31.70;99868.47;5027238;28;20042;-66
2022/03/13 01:44:57;;;;;;;12.50;7.15;;;;;;;0.14;31.87;99837.28;5027770;28;20072;-67
2022/03/13 01:47:29;;;;;;;10.52;8.25;;;;;;;0.35;31.56;99861.50;5027072;28;20348;-66
2022/03/13 01:50:02;;;;;;;10.35;7.45;;;;;;;0.26;31.68;99847.66;5027075;28;20229;-66
2022/03/13 01:52:34;;;;;;;12.05;7.82;;;;;;;0.20;31.90;99857.25;5027036;28;20360;-65
2022/03/13 01:55:09;;;;;;;10.98;7.63;;;;;;;0.22;31.86;99851.16;5026761;28;20061;-66
2022/03/13 01:57:42;;;;;;;14.48;9.27;;;;;;;0.18;31.86;99854.66;5026933;28;20042;-66
2022/03/13 02:00:19;;;;;;;12.38;8.80;;;;;;;0.13;32.02;99860.75;5026287;28;20049;-66
2022/03/13 02:02:52;;;;;;;11.35;8.05;;;;;;;-0.59;31.76;99736.06;5027128;28;20042;-66
2022/03/13 02:05:30;;;;;;;9.75;7.53;;;;;;;0.12;32.06;99846.84;5026790;28;20053;-66
2022/03/13 02:08:14;;;;;;;9.57;7.13;;;;;;;0.13;32.15;99848.59;5027060;28;20046;-66
2022/03/13 02:10:48;;;;;;;12.38;7.88;;;;;;;0.16;31.63;99840.75;5026712;28;20238;-65
2022/03/13 02:13:21;;;;;;;13.48;8.38;;;;;;;0.15;31.93;99843.38;5025912;28;20332;-67
2022/03/13 02:15:55;;;;;;;10.68;7.70;;;;;;;0.14;31.76;99847.72;5026768;28;20332;-66
2022/03/13 02:18:24;;;;;;;11.93;7.45;;;;;;;0.13;32.00;99839.91;5025802;28;20222;-65
2022/03/13 02:20:54;;;;;;;11.10;7.63;;;;;;;0.17;31.68;99850.31;5026762;28;20209;-66
2022/03/13 02:23:27;;;;;;;14.80;9.13;;;;;;;0.13;32.02;99845.13;5026731;28;20037;-66
2022/03/13 02:25:56;;;;;;;11.65;7.93;;;;;;;0.10;32.00;99851.22;5026324;28;20213;-66
2022/03/13 02:28:28;;;;;;;49.80;28.30;;;;;;;0.26;34.73;99834.63;5026275;28;20112;-65
2022/03/13 02:31:01;;;;;;;36.42;20.35;;;;;;;-0.63;33.45;99653.63;5026651;28;20042;-65
2022/03/13 02:33:30;;;;;;;19.33;11.43;;;;;;;0.47;32.12;99817.97;5026564;28;20069;-66
2022/03/13 02:36:02;;;;;;;13.43;8.57;;;;;;;0.39;31.71;99821.50;5026439;28;20133;-66
2022/03/13 02:38:32;;;;;;;10.80;7.75;;;;;;;0.32;31.62;99817.19;5026396;28;20056;-66
2022/03/13 02:41:00;;;;;;;12.70;7.70;;;;;;;0.23;31.94;99813.78;5026314;28;20080;-66
2022/03/13 02:43:30;;;;;;;11.02;7.72;;;;;;;0.16;31.96;99819.91;5026151;28;20045;-66
2022/03/13 02:46:01;;;;;;;12.82;8.10;;;;;;;0.13;32.00;99819.91;5026391;28;20046;-66
2022/03/13 02:48:30;;;;;;;9.80;8.00;;;;;;;0.11;31.98;99819.06;5026613;28;20042;-66
2022/03/13 02:51:00;;;;;;;11.52;8.70;;;;;;;0.12;32.00;99823.41;5026293;28;20041;-66
2022/03/13 02:53:32;;;;;;;12.50;9.02;;;;;;;0.13;31.84;99819.06;5026165;28;20081;-67
2022/03/13 02:56:00;;;;;;;12.15;7.13;;;;;;;0.13;32.01;99824.28;5026184;28;20049;-66
2022/03/13 02:58:31;;;;;;;10.48;7.63;;;;;;;0.17;31.82;99826.84;5026477;28;20032;-66
2022/03/13 03:01:01;;;;;;;11.38;8.02;;;;;;;0.19;31.75;99838.13;5026168;28;20050;-66
2022/03/13 03:03:31;;;;;;;12.07;8.50;;;;;;;0.24;31.85;99830.28;5026137;28;20076;-66
2022/03/13 03:06:01;;;;;;;12.05;8.02;;;;;;;0.28;31.57;99829.38;5026090;28;20049;-66
2022/03/13 03:08:32;;;;;;;9.98;7.70;;;;;;;0.23;31.79;99828.56;5026016;28;20030;-66
2022/03/13 03:11:01;;;;;;;11.90;7.53;;;;;;;0.14;32.34;99834.69;5026086;28;20049;-66
2022/03/13 03:13:31;;;;;;;10.32;6.38;;;;;;;0.19;32.35;99834.66;5025114;28;20096;-66
2022/03/13 03:16:01;;;;;;;13.60;7.88;;;;;;;0.09;32.48;99835.59;5025862;28;20057;-66
2022/03/13 03:18:31;;;;;;;12.30;7.63;;;;;;;0.06;32.79;99833.88;5025644;28;20046;-66
2022/03/13 03:21:01;;;;;;;12.25;7.88;;;;;;;0.03;32.91;99830.41;5025883;28;20030;-66
2022/03/13 03:23:33;;;;;;;12.20;7.43;;;;;;;0.09;32.73;99831.25;5025647;28;20042;-66
2022/03/13 03:26:02;;;;;;;10.30;8.13;;;;;;;0.13;32.58;99835.56;5025536;28;20202;-66
2022/03/13 03:28:34;;;;;;;11.23;8.15;;;;;;;0.02;33.36;99841.69;5025870;28;20060;-66
2022/03/13 03:31:03;;;;;;;10.60;7.35;;;;;;;-0.09;33.75;99847.84;5025456;28;20205;-66
2022/03/13 03:33:32;;;;;;;11.65;8.55;;;;;;;-0.12;33.77;99839.16;5025830;28;20369;-66
2022/03/13 03:36:02;;;;;;;11.38;7.85;;;;;;;-0.12;34.01;99845.25;5025456;28;20336;-65
2022/03/13 03:38:34;;;;;;;12.93;8.20;;;;;;;-0.22;33.67;99837.47;5025561;28;20202;-66
2022/03/13 03:41:02;;;;;;;12.40;8.70;;;;;;;-0.21;33.38;99829.66;5025493;28;20305;-65
2022/03/13 03:43:33;;;;;;;10.43;7.68;;;;;;;-0.29;33.79;99840.97;5025726;28;20297;-65
2022/03/13 03:46:03;;;;;;;13.00;8.75;;;;;;;-0.41;34.69;99840.13;5025697;28;20290;-65
2022/03/13 03:48:33;;;;;;;11.70;8.30;;;;;;;-0.49;34.62;99841.03;5025719;28;20308;-65
2022/03/13 03:51:03;;;;;;;10.77;8.02;;;;;;;-0.48;34.38;99850.56;5025403;28;20042;-66
2022/03/13 03:53:35;;;;;;;11.55;8.23;;;;;;;-0.59;34.56;99842.78;5029260;28;20053;-65
2022/03/13 03:56:03;;;;;;;9.85;7.68;;;;;;;-0.56;34.60;99848.00;5029179;28;20061;-65
2022/03/13 03:58:33;;;;;;;12.02;7.57;;;;;;;-0.62;34.56;99849.75;5029710;28;20289;-65
2022/03/13 04:01:03;;;;;;;13.10;8.45;;;;;;;-0.64;34.97;99854.09;5029124;28;20038;-65
2022/03/13 04:03:34;;;;;;;14.15;9.00;;;;;;;-0.75;34.97;99854.09;5029638;28;20026;-65
2022/03/13 04:06:04;;;;;;;10.38;6.95;;;;;;;-0.72;34.66;99856.72;5029362;28;20061;-65
2022/03/13 04:08:35;;;;;;;11.07;8.00;;;;;;;-0.69;34.78;99846.28;5029284;28;20029;-65
2022/03/13 04:11:04;;;;;;;8.55;7.45;;;;;;;-0.76;35.01;99844.56;5029222;28;20061;-66
2022/03/13 04:13:37;;;;;;;12.23;7.53;;;;;;;-0.75;34.45;99846.31;5029223;28;20104;-66
2022/03/13 04:16:10;;;;;;;10.27;8.18;;;;;;;-1.47;35.55;99762.25;5028785;28;20182;-65
2022/03/13 04:18:42;;;;;;;11.88;8.25;;;;;;;-0.87;35.41;99843.72;5029108;28;20088;-66
2022/03/13 04:21:15;;;;;;;10.18;7.20;;;;;;;-0.85;34.71;99844.59;5028814;28;20092;-65
2022/03/13 04:23:48;;;;;;;15.82;8.90;;;;;;;-0.87;34.51;99847.19;5028653;28;20045;-66
2022/03/13 04:26:22;;;;;;;10.48;6.85;;;;;;;-0.91;35.01;99850.66;5028631;28;20096;-65
2022/03/13 04:28:54;;;;;;;12.18;7.45;;;;;;;-0.92;35.26;99845.47;5028825;28;20046;-65
2022/03/13 04:31:26;;;;;;;12.60;8.40;;;;;;;-0.89;35.24;99848.06;5028838;28;20084;-65
2022/03/13 04:33:58;;;;;;;10.73;7.45;;;;;;;-0.90;34.96;99846.31;5028551;28;20041;-66
2022/03/13 04:36:32;;;;;;;11.68;8.07;;;;;;;-0.92;34.75;99848.94;5028688;28;20046;-66
2022/03/13 04:39:06;;;;;;;13.88;7.53;;;;;;;-0.96;35.44;99841.13;5028420;28;20084;-66
2022/03/13 04:41:39;;;;;;;10.57;8.10;;;;;;;-0.94;34.95;99837.66;5028368;28;20088;-65
2022/03/13 04:44:14;;;;;;;10.93;7.75;;;;;;;-0.92;35.09;99840.25;5028362;28;20179;-65
2022/03/13 04:46:46;;;;;;;11.02;6.82;;;;;;;-0.99;35.74;99847.19;5028298;28;20049;-65
2022/03/13 04:49:18;;;;;;;13.20;8.43;;;;;;;-1.05;35.21;99837.63;5028234;28;20084;-65
2022/03/13 04:51:50;;;;;;;11.52;8.48;;;;;;;-1.16;35.68;99835.91;5028211;28;20041;-65
2022/03/13 04:54:24;;;;;;;11.43;7.10;;;;;;;-1.15;35.71;99835.03;5028149;28;20058;-65
2022/03/13 04:56:57;;;;;;;11.60;8.65;;;;;;;-1.17;35.49;99837.63;5028308;28;20046;-65
2022/03/13 04:59:29;;;;;;;10.30;8.05;;;;;;;-1.22;35.26;99844.56;5028255;28;20046;-65
2022/03/13 05:02:01;;;;;;;10.88;7.18;;;;;;;-1.25;35.64;99835.91;5028195;28;20042;-65
2022/03/13 05:04:34;;;;;;;12.77;8.23;;;;;;;-1.19;35.63;99841.97;5026901;28;20240;-65
2022/03/13 05:07:06;;;;;;;10.48;7.00;;;;;;;-1.12;34.97;99843.72;5028146;28;20045;-65
2022/03/13 05:09:40;;;;;;;12.88;8.07;;;;;;;-1.09;35.08;99845.44;5027971;28;20088;-66
2022/03/13 05:12:14;;;;;;;11.48;7.55;;;;;;;-1.13;35.50;99847.19;5028017;28;20042;-66
2022/03/13 05:14:46;;;;;;;11.40;8.10;;;;;;;-1.08;35.46;99840.25;5027915;28;20351;-65
2022/03/13 05:17:18;;;;;;;15.35;9.15;;;;;;;-1.17;35.99;99847.19;5027747;28;20049;-65
2022/03/13 05:19:51;;;;;;;11.32;7.75;;;;;;;-1.16;35.65;99848.91;5027439;28;20042;-65
2022/03/13 05:22:23;;;;;;;12.82;8.50;;;;;;;-1.22;36.59;99854.97;5027823;28;20100;-66
2022/03/13 05:24:56;;;;;;;14.40;8.57;;;;;;;-1.21;35.98;99855.84;5027874;28;20042;-65
2022/03/13 05:27:28;;;;;;;11.18;8.65;;;;;;;-1.19;35.91;99854.97;5027816;28;20046;-65
2022/03/13 05:30:01;;;;;;;10.07;7.30;;;;;;;-1.17;35.56;99862.78;5027778;28;20096;-65
2022/03/13 05:32:35;;;;;;;13.05;8.07;;;;;;;-1.19;35.95;99861.91;5026992;28;20046;-65
2022/03/13 05:35:10;;;;;;;10.73;7.43;;;;;;;-1.10;36.15;99860.19;5026915;28;20144;-65
2022/03/13 05:37:42;;;;;;;12.18;7.53;;;;;;;-1.10;35.82;99864.50;5027547;28;20100;-66
2022/03/13 05:40:19;;;;;;;10.82;8.13;;;;;;;-1.21;36.74;99872.31;5027364;28;20045;-65
2022/03/13 05:42:55;;;;;;;10.35;7.57;;;;;;;-1.27;37.11;99874.91;5027505;28;20041;-65
2022/03/13 05:45:28;;;;;;;11.02;7.78;;;;;;;-1.34;37.10;99886.19;5027203;28;20064;-65
2022/03/13 05:48:06;;;;;;;10.75;8.18;;;;;;;-2.54;35.99;99688.50;5027145;28;20104;-65
2022/03/13 05:50:39;;;;;;;9.50;7.13;;;;;;;-1.21;35.67;99869.72;5027101;28;20214;-66
2022/03/13 05:53:11;;;;;;;10.80;8.35;;;;;;;-1.23;36.44;99866.25;5027342;28;20324;-66
2022/03/13 05:55:45;;;;;;;11.48;7.90;;;;;;;-2.47;36.26;99659.97;5026813;28;20104;-66
2022/03/13 05:58:18;;;;;;;11.13;7.35;;;;;;;-1.20;36.62;99868.84;5027141;28;20041;-66
2022/03/13 06:01:03;;;;;;;9.52;7.72;;;;;;;-1.15;36.02;99869.72;5027064;28;20038;-66
2022/03/13 06:03:34;;;;;;;14.57;8.10;;;;;;;-1.17;35.90;99871.44;5026386;28;20041;-66
2022/03/13 06:06:04;;;;;;;10.85;7.97;;;;;;;-1.20;36.56;99868.84;5027093;28;20294;-66
2022/03/13 06:08:34;;;;;;;11.60;8.43;;;;;;;-1.13;36.09;99870.59;5026711;28;20053;-66
2022/03/13 06:11:06;;;;;;;10.85;8.02;;;;;;;-0.99;36.76;99869.75;5026989;28;20072;-66
2022/03/13 06:13:35;;;;;;;13.40;8.32;;;;;;;-0.88;36.26;99876.69;5026698;28;20294;-65
2022/03/13 06:16:05;;;;;;;10.65;8.35;;;;;;;-0.82;36.36;99881.88;5026295;28;20042;-65
2022/03/13 06:18:37;;;;;;;10.23;7.40;;;;;;;-0.68;35.81;99880.13;5026464;28;20192;-65
2022/03/13 06:21:05;;;;;;;12.95;8.88;;;;;;;-0.55;35.52;99880.97;5026696;28;20050;-66
2022/03/13 06:23:35;;;;;;;11.13;8.13;;;;;;;-0.45;35.34;99887.03;5026464;28;20048;-66
2022/03/13 06:26:07;;;;;;;13.40;9.60;;;;;;;-0.29;34.92;99883.50;5026595;28;20050;-65
2022/03/13 06:28:36;;;;;;;13.70;9.30;;;;;;;-0.22;35.40;99884.34;5026248;28;20041;-65
2022/03/13 06:31:05;;;;;;;13.40;7.80;;;;;;;-0.07;34.58;99882.56;5026520;28;20042;-65
2022/03/13 06:33:36;;;;;;;10.57;7.82;;;;;;;0.03;34.62;99872.09;5026442;28;20038;-65
2022/03/13 06:36:06;;;;;;;10.23;7.45;;;;;;;0.20;34.39;99883.31;5026239;28;20057;-66
2022/03/13 06:38:36;;;;;;;12.52;8.70;;;;;;;0.39;34.37;99878.88;5026330;28;20046;-66
2022/03/13 06:41:07;;;;;;;14.10;9.10;;;;;;;0.51;34.42;99871.84;5026463;28;20044;-66
2022/03/13 06:43:36;;;;;;;12.45;9.35;;;;;;;0.56;34.20;99882.25;5026411;28;20030;-66
2022/03/13 06:46:06;;;;;;;12.15;8.30;;;;;;;0.71;33.93;99873.44;5026143;28;20093;-65
2022/03/13 06:48:36;;;;;;;11.75;8.90;;;;;;;0.83;34.11;99873.34;5026335;28;20045;-65
2022/03/13 06:51:06;;;;;;;11.13;8.32;;;;;;;0.96;33.64;99871.50;5026061;28;20041;-65
2022/03/13 06:53:36;;;;;;;9.38;7.55;;;;;;;1.04;33.73;99873.19;5026008;28;20041;-66
2022/03/13 06:56:09;;;;;;;11.93;9.27;;;;;;;1.23;33.44;99872.13;5025971;28;20121;-66
2022/03/13 06:58:39;;;;;;;10.50;7.68;;;;;;;1.40;33.14;99869.38;5026010;28;20086;-66
2022/03/13 07:01:07;;;;;;;12.73;8.55;;;;;;;1.57;33.10;99869.19;5025788;28;20053;-66
2022/03/13 07:03:37;;;;;;;12.38;9.00;;;;;;;1.62;32.80;99863.94;5026104;28;20042;-66
2022/03/13 07:06:07;;;;;;;10.23;8.00;;;;;;;1.76;32.62;99867.28;5026109;28;20049;-66
2022/03/13 07:08:37;;;;;;;11.10;7.50;;;;;;;1.92;32.35;99866.22;5025828;28;20187;-66
2022/03/13 07:11:09;;;;;;;10.57;7.53;;;;;;;2.08;32.21;99872.13;5025808;28;20041;-67
2022/03/13 07:13:43;;;;;;;11.20;8.35;;;;;;;2.23;31.97;99870.16;5025732;28;20041;-67
2022/03/13 07:16:15;;;;;;;11.75;8.40;;;;;;;2.35;31.95;99863.91;5025903;28;20327;-66
2022/03/13 07:18:43;;;;;;;10.48;8.00;;;;;;;2.51;31.58;99864.56;5025724;28;20227;-66
2022/03/13 07:21:13;;;;;;;10.85;7.88;;;;;;;2.60;31.45;99859.19;5025484;28;20316;-67
2022/03/13 07:23:43;;;;;;;12.65;7.28;;;;;;;2.66;31.56;99861.72;5025641;28;20368;-67
2022/03/13 07:26:15;;;;;;;11.07;8.98;;;;;;;2.61;31.26;99826.91;5025650;28;20064;-66
2022/03/13 07:28:43;;;;;;;10.35;7.40;;;;;;;2.93;31.16;99855.19;5025478;28;20109;-66
2022/03/13 07:31:13;;;;;;;9.98;7.13;;;;;;;3.06;30.86;99851.47;5025822;28;20030;-67
2022/03/13 07:33:43;;;;;;;10.80;8.13;;;;;;;3.21;30.91;99858.19;5025544;28;20063;-67
2022/03/13 07:36:14;;;;;;;13.18;8.63;;;;;;;3.38;30.75;99850.91;5025762;28;20257;-67
2022/03/13 07:38:44;;;;;;;11.30;7.57;;;;;;;3.49;30.68;99862.06;5024798;28;20050;-67
2022/03/13 07:41:15;;;;;;;12.05;7.97;;;;;;;3.51;30.58;99855.03;5025731;28;20046;-67
2022/03/13 07:43:44;;;;;;;11.52;7.95;;;;;;;3.63;30.57;99861.78;5025760;28;20060;-65
2022/03/13 07:46:14;;;;;;;12.50;8.55;;;;;;;3.82;30.58;99864.94;5025699;28;20089;-66
2022/03/13 07:48:44;;;;;;;11.65;7.68;;;;;;;3.89;30.26;99857.81;5025428;28;20061;-67
2022/03/13 07:51:17;;;;;;;9.48;7.43;;;;;;;3.98;30.13;99847.13;5025406;28;20249;-67
2022/03/13 07:53:45;;;;;;;10.20;7.70;;;;;;;4.11;29.92;99838.97;5025021;28;20120;-67
2022/03/13 07:56:17;;;;;;;9.68;8.05;;;;;;;4.41;29.70;99839.22;5025282;28;20041;-67
2022/03/13 07:58:45;;;;;;;10.98;8.20;;;;;;;4.56;29.20;99841.50;5025350;28;20058;-67
2022/03/13 08:01:15;;;;;;;12.00;8.90;;;;;;;4.65;29.44;99846.53;5025453;28;20042;-66
2022/03/13 08:03:45;;;;;;;15.20;8.07;;;;;;;4.74;29.09;99829.72;5025207;28;20089;-66
2022/03/13 08:06:15;;;;;;;13.65;8.55;;;;;;;4.35;28.74;99805.25;5025199;28;20041;-65
2022/03/13 08:08:45;;;;;;;10.05;7.90;;;;;;;4.50;29.07;99846.91;5025434;28;20076;-66
2022/03/13 08:11:17;;;;;;;11.32;8.35;;;;;;;4.67;29.23;99949.75;5025386;28;20042;-66
2022/03/13 08:13:47;;;;;;;10.43;7.88;;;;;;;4.79;29.17;99833.09;5025367;28;20058;-66
2022/03/13 08:16:17;;;;;;;10.77;7.50;;;;;;;4.95;28.73;99833.59;5025058;28;20042;-66
2022/03/13 08:18:46;;;;;;;10.27;8.10;;;;;;;4.99;28.85;99830.00;5025212;28;20030;-66
2022/03/13 08:21:16;;;;;;;13.68;8.93;;;;;;;5.19;28.01;99824.25;5024974;28;20179;-66
2022/03/13 08:23:46;;;;;;;12.95;8.77;;;;;;;5.29;28.07;99842.38;5024920;28;20197;-66
2022/03/13 08:26:17;;;;;;;10.10;6.90;;;;;;;5.26;27.99;99802.16;5024978;28;20250;-66
2022/03/13 08:28:46;;;;;;;12.10;7.60;;;;;;;4.30;27.45;99636.56;5024977;28;20328;-66
2022/03/13 08:31:17;;;;;;;9.38;7.20;;;;;;;5.44;27.99;99828.81;5025289;28;20340;-66
2022/03/13 08:33:46;;;;;;;11.68;8.23;;;;;;;5.30;27.30;99782.78;5024937;28;20320;-66
2022/03/13 08:36:17;;;;;;;12.85;8.70;;;;;;;5.74;27.19;99823.63;5024901;28;20235;-66
2022/03/13 08:38:47;;;;;;;9.80;8.45;;;;;;;5.82;27.35;99824.28;5026755;28;20223;-66
2022/03/13 08:41:18;;;;;;;10.30;7.22;;;;;;;5.99;27.14;99822.00;5028408;28;20088;-66
2022/03/13 08:43:47;;;;;;;10.25;7.43;;;;;;;6.00;27.08;99814.97;5028216;28;20109;-66
2022/03/13 08:46:17;;;;;;;10.80;7.75;;;;;;;6.09;26.96;99826.09;5028835;28;20141;-66
2022/03/13 08:48:47;;;;;;;11.80;8.07;;;;;;;6.04;27.12;99820.13;5028157;28;20042;-66
2022/03/13 08:51:19;;;;;;;13.07;8.10;;;;;;;5.99;26.90;99827.28;5028100;28;20037;-66
2022/03/13 08:53:47;;;;;;;10.77;8.00;;;;;;;6.07;26.80;99830.53;5027530;28;20096;-66
2022/03/13 08:56:20;;;;;;;12.85;9.27;;;;;;;6.10;27.10;99811.16;5028228;28;20046;-66
2022/03/13 08:58:48;;;;;;;11.57;7.50;;;;;;;6.27;26.98;99779.94;5028321;28;20117;-66
2022/03/13 09:01:18;;;;;;;11.30;7.85;;;;;;;6.53;26.63;99833.56;5027893;28;20249;-66
2022/03/13 09:03:48;;;;;;;11.93;7.75;;;;;;;6.58;27.17;99811.44;5027769;28;20297;-66
2022/03/13 09:06:18;;;;;;;10.68;7.47;;;;;;;6.68;26.61;99785.66;5027863;28;20392;-67
2022/03/13 09:08:48;;;;;;;12.32;8.38;;;;;;;6.94;26.16;99819.97;5026731;28;20340;-67
2022/03/13 09:11:20;;;;;;;10.02;7.40;;;;;;;6.90;26.22;99817.47;5027830;28;20282;-67
2022/03/13 09:13:48;;;;;;;10.43;7.97;;;;;;;6.95;26.44;99812.91;5027525;28;20044;-67
2022/03/13 09:16:19;;;;;;;9.57;7.25;;;;;;;6.86;25.87;99821.13;5026764;28;20037;-67
2022/03/13 09:18:49;;;;;;;11.82;8.02;;;;;;;7.03;26.44;99811.75;5027095;28;20078;-67
2022/03/13 09:21:19;;;;;;;10.30;7.50;;;;;;;7.14;26.01;99819.28;5027499;28;20324;-67
2022/03/13 09:23:49;;;;;;;9.32;7.00;;;;;;;7.23;25.44;99826.88;5026689;28;20109;-67
2022/03/13 09:26:20;;;;;;;9.73;6.53;;;;;;;7.04;25.08;99807.34;5027993;28;20042;-67
2022/03/13 09:28:49;;;;;;;10.98;8.15;;;;;;;6.97;24.57;99819.84;5027697;28;20072;-67
2022/03/13 09:31:19;;;;;;;9.95;7.50;;;;;;;6.97;25.16;99824.28;5027657;28;20048;-67
2022/03/13 09:33:49;;;;;;;10.55;7.70;;;;;;;7.11;25.50;99824.66;5027550;28;20053;-67
2022/03/13 09:36:20;;;;;;;10.93;7.60;;;;;;;7.38;25.22;99826.41;5027582;28;20034;-67
2022/03/13 09:38:50;;;;;;;9.80;7.55;;;;;;;7.52;25.15;99815.38;5027190;28;20041;-67
2022/03/13 09:41:21;;;;;;;9.95;7.35;;;;;;;7.47;24.57;99829.63;5027245;28;20201;-67
2022/03/13 09:43:50;;;;;;;11.85;9.05;;;;;;;7.31;24.38;99826.63;5027085;28;20332;-67
2022/03/13 09:46:20;;;;;;;11.43;7.25;;;;;;;7.43;25.15;99833.28;5027122;28;20298;-67
2022/03/13 09:48:53;;;;;;;16.50;8.82;;;;;;;7.65;24.87;99815.78;5027148;28;20069;-67
2022/03/13 09:51:20;;;;;;;10.27;8.10;;;;;;;7.56;24.65;99809.06;5026244;28;20321;-67
2022/03/13 09:53:50;;;;;;;13.45;8.32;;;;;;;7.46;24.31;99843.72;5026786;28;20109;-67
2022/03/13 09:56:22;;;;;;;9.50;6.82;;;;;;;7.34;24.18;99824.78;5026899;28;20059;-67
2022/03/13 09:58:51;;;;;;;9.00;7.07;;;;;;;7.39;24.55;99821.97;5026766;28;20045;-67
2022/03/13 10:01:21;;;;;;;11.20;7.45;;;;;;;7.50;24.94;99824.25;5027371;28;20029;-68
2022/03/13 10:03:51;;;;;;;8.95;7.15;;;;;;;7.52;24.02;99843.50;5026726;28;20053;-66
2022/03/13 10:06:21;;;;;;;13.13;8.15;;;;;;;7.52;24.41;99818.00;5026931;28;20026;-66
2022/03/13 10:08:51;;;;;;;9.45;7.28;;;;;;;7.51;24.67;99818.91;5026393;28;20045;-66
2022/03/13 10:11:33;;;;;;;10.70;7.95;;;;;;;7.63;23.94;99821.13;5026750;28;20033;-67
2022/03/13 10:14:10;;;;;;;9.75;7.03;;;;;;;7.70;24.11;99800.66;5026542;28;20085;-67
2022/03/13 10:16:42;;;;;;;11.55;7.07;;;;;;;7.80;24.18;99807.31;5026769;28;20088;-67
2022/03/13 10:19:15;;;;;;;9.23;6.63;;;;;;;7.85;23.98;99809.78;5026336;28;20050;-67
2022/03/13 10:22:00;;;;;;;9.23;6.93;;;;;;;7.91;23.70;99789.31;5026622;28;20045;-66
2022/03/13 10:24:40;;;;;;;;;;;;;;;7.81;23.05;99824.00;5026158;28;20100;-67
2022/03/13 10:27:15;;;;;;;12.57;7.95;;;;;;;7.85;23.52;99802.72;5026466;28;20055;-67
2022/03/13 10:29:48;;;;;;;10.32;6.95;;;;;;;8.11;24.22;99806.19;5026584;28;20054;-66
2022/03/13 10:32:21;;;;;;;9.15;7.38;;;;;;;7.93;23.72;99768.13;5026133;28;20052;-67
2022/03/13 10:34:56;;;;;;;12.10;8.15;;;;;;;7.97;23.25;99799.63;5026190;28;20293;-67
2022/03/13 10:37:37;;;;;;;10.18;7.10;;;;;;;7.84;23.00;99819.47;5042127;28;20045;-67
2022/03/13 10:40:16;;;;;;;8.63;7.53;;;;;;;7.91;23.18;99781.38;5026134;28;20290;-66
2022/03/13 10:42:51;;;;;;;11.45;8.13;;;;;;;8.12;23.18;99787.63;5026175;28;20042;-67
2022/03/13 10:45:37;;;;;;;9.55;6.47;;;;;;;7.97;22.81;99728.38;5025530;28;20087;-66
2022/03/13 10:48:21;;;;;;;9.45;7.10;;;;;;;8.50;22.45;99785.28;5026285;28;20038;-66
2022/03/13 10:50:54;;;;;;;9.02;7.07;;;;;;;8.56;22.91;99793.81;5026256;28;20045;-67
2022/03/13 10:53:28;;;;;;;11.60;7.22;;;;;;;8.37;22.87;99787.53;5025863;28;20092;-67
2022/03/13 10:56:07;;;;;;;9.82;7.30;;;;;;;8.21;22.26;99808.41;5026071;28;20088;-67
2022/03/13 10:58:44;;;;;;;11.80;7.22;;;;;;;8.26;22.59;99779.19;5025862;28;20050;-67
2022/03/13 11:01:17;;;;;;;8.18;6.70;;;;;;;8.57;22.90;99774.41;5024905;28;20054;-67
2022/03/13 11:03:50;;;;;;;9.77;7.13;;;;;;;8.64;22.32;99781.16;5025261;28;20245;-67
2022/03/13 11:06:21;;;;;;;9.38;6.40;;;;;;;8.72;22.38;99778.22;5025644;28;20337;-67
2022/03/13 11:08:54;;;;;;;10.25;6.93;;;;;;;8.79;21.81;99786.75;5025759;28;20322;-67
2022/03/13 11:11:28;;;;;;;8.85;6.75;;;;;;;9.00;22.52;99775.28;5025486;28;20088;-67
2022/03/13 11:14:02;;;;;;;8.30;6.97;;;;;;;9.16;22.53;99772.84;5024793;28;20108;-67
2022/03/13 11:16:34;;;;;;;10.32;6.40;;;;;;;9.22;22.61;99768.19;5025672;28;20088;-67
2022/03/13 11:19:08;;;;;;;9.57;6.90;;;;;;;8.52;21.99;99661.91;5025350;28;20045;-67
2022/03/13 11:21:40;;;;;;;10.85;6.80;;;;;;;9.02;21.81;99770.78;5025743;28;20103;-67
2022/03/13 11:24:12;;;;;;;7.95;6.82;;;;;;;9.18;21.99;99763.91;5025452;28;20096;-67
2022/03/13 11:26:45;;;;;;;13.48;7.53;;;;;;;9.34;22.17;99743.00;5025290;28;20046;-67
2022/03/13 11:29:40;;;;;;;10.60;6.45;;;;;;;9.46;21.56;99754.84;5025801;28;20087;-68
2022/03/13 11:32:31;;;;;;;11.10;7.82;;;;;;;9.25;21.59;99746.91;5025469;28;20218;-68
2022/03/13 11:35:32;;;;;;;9.80;7.05;;;;;;;9.16;21.17;99743.75;5025464;28;20061;-67
2022/03/13 11:38:19;;;;;;;9.25;6.88;;;;;;;8.72;21.34;99684.84;5025706;28;20084;-67
2022/03/13 11:40:51;;;;;;;10.52;7.35;;;;;;;9.34;21.91;99747.41;5025300;28;20121;-67
2022/03/13 11:43:24;;;;;;;9.25;7.88;;;;;;;9.44;21.90;99731.09;5025287;28;20088;-68
2022/03/13 11:46:00;;;;;;;9.27;7.32;;;;;;;9.08;21.80;99669.19;5025542;28;20290;-68
2022/03/13 11:48:37;;;;;;;8.57;6.57;;;;;;;9.58;21.95;99725.19;5025390;28;20042;-66
2022/03/13 11:51:11;;;;;;;12.23;7.80;;;;;;;9.36;21.30;99690.88;5025431;28;20050;-66
2022/03/13 11:53:46;;;;;;;8.63;6.65;;;;;;;9.57;21.93;99734.06;5024919;28;20294;-67
2022/03/13 11:56:27;;;;;;;9.10;6.68;;;;;;;9.42;21.07;99726.81;5025256;28;20048;-66
2022/03/13 11:59:14;;;;;;;10.35;6.85;;;;;;;9.39;21.23;99724.28;5025063;28;20045;-66